createdAt,value
2023-02-21T00:01:50.095Z,76.50
2023-02-21T00:04:36.781Z,75.46
2023-02-21T00:07:22.819Z,75.40
2023-02-21T00:10:08.471Z,75.32
2023-02-21T00:12:54.315Z,75.03
2023-02-21T00:15:39.687Z,75.34
2023-02-21T00:18:25.012Z,74.30
2023-02-21T00:21:12.118Z,73.77
2023-02-21T00:23:57.263Z,74.17
2023-02-21T00:26:43.425Z,73.09
2023-02-21T00:29:28.653Z,74.21
2023-02-21T00:32:14.014Z,73.14
2023-02-21T00:34:59.574Z,74.70
2023-02-21T00:37:46.668Z,74.92
2023-02-21T00:40:33.589Z,75.48
2023-02-21T00:43:18.872Z,74.41
2023-02-21T00:46:05.090Z,75.21
2023-02-21T00:48:50.980Z,76.92
2023-02-21T00:51:36.882Z,75.14
2023-02-21T00:54:23.987Z,75.33
2023-02-21T00:57:09.236Z,76.54
2023-02-21T00:59:54.868Z,77.25
2023-02-21T01:02:40.221Z,78.17
2023-02-21T01:05:26.690Z,77.51
2023-02-21T01:08:12.012Z,77.95
2023-02-21T01:10:58.836Z,78.66
2023-02-21T01:13:44.286Z,78.70
2023-02-21T01:16:29.743Z,78.68
2023-02-21T01:19:15.304Z,78.94
2023-02-21T01:22:01.000Z,79.32
2023-02-21T01:24:46.541Z,78.49
2023-02-21T01:27:33.406Z,78.83
2023-02-21T01:30:18.534Z,78.85
2023-02-21T01:33:03.785Z,79.74
2023-02-21T01:35:49.041Z,79.35
2023-02-21T01:38:34.531Z,79.53
2023-02-21T01:41:20.765Z,77.86
2023-02-21T01:44:19.102Z,78.92
2023-02-21T01:47:04.487Z,79.36
2023-02-21T01:49:51.837Z,79.49
2023-02-21T01:52:37.505Z,78.56
2023-02-21T01:55:24.943Z,79.41
2023-02-21T01:58:11.182Z,79.85
2023-02-21T02:00:57.904Z,80.48
2023-02-21T02:03:43.465Z,80.36
2023-02-21T02:06:32.792Z,80.51
2023-02-21T02:09:25.506Z,79.55
2023-02-21T02:12:23.395Z,80.35
2023-02-21T02:15:16.880Z,79.12
2023-02-21T02:17:58.202Z,80.08
2023-02-21T02:20:54.355Z,80.98
2023-02-21T02:24:02.475Z,80.49
2023-02-21T02:27:08.505Z,80.47
2023-02-21T02:30:18.607Z,80.92
2023-02-21T02:33:24.422Z,80.42
2023-02-21T02:35:58.477Z,80.70
2023-02-21T02:38:32.764Z,80.76
2023-02-21T02:41:08.428Z,81.60
2023-02-21T02:43:44.925Z,81.91
2023-02-21T02:46:19.425Z,81.99
2023-02-21T02:48:54.834Z,81.84
2023-02-21T02:51:24.555Z,82.17
2023-02-21T02:53:52.611Z,81.97
2023-02-21T02:56:23.752Z,81.94
2023-02-21T02:58:57.467Z,81.81
2023-02-21T03:01:50.328Z,81.68
2023-02-21T03:04:33.849Z,81.57
2023-02-21T03:07:14.046Z,81.26
2023-02-21T03:09:52.657Z,81.36
2023-02-21T03:12:29.202Z,82.15
2023-02-21T03:15:01.931Z,81.97
2023-02-21T03:17:33.691Z,81.46
2023-02-21T03:20:04.326Z,82.37
2023-02-21T03:22:34.418Z,82.18
2023-02-21T03:25:04.036Z,81.95
2023-02-21T03:27:33.583Z,82.36
2023-02-21T03:30:05.550Z,82.06
2023-02-21T03:32:35.874Z,82.33
2023-02-21T03:35:04.549Z,82.78
2023-02-21T03:37:36.185Z,82.37
2023-02-21T03:40:05.669Z,82.86
2023-02-21T03:42:34.053Z,82.74
2023-02-21T03:45:02.066Z,82.32
2023-02-21T03:47:30.139Z,82.61
2023-02-21T03:49:58.104Z,82.38
2023-02-21T03:52:26.058Z,82.94
2023-02-21T03:54:55.461Z,83.04
2023-02-21T03:57:23.580Z,82.89
2023-02-21T03:59:51.853Z,82.68
2023-02-21T04:02:20.225Z,82.42
2023-02-21T04:04:48.774Z,82.33
2023-02-21T04:07:17.627Z,83.06
2023-02-21T04:09:46.119Z,82.17
2023-02-21T04:12:15.561Z,82.94
2023-02-21T04:14:43.562Z,82.64
2023-02-21T04:17:11.466Z,82.33
2023-02-21T04:19:39.452Z,83.22
2023-02-21T04:22:07.440Z,82.62
2023-02-21T04:24:35.384Z,83.32
2023-02-21T04:27:03.407Z,82.72
2023-02-21T04:29:32.704Z,82.91
2023-02-21T04:32:00.736Z,82.74
2023-02-21T04:34:28.745Z,82.84
2023-02-21T04:36:56.824Z,83.73
2023-02-21T04:39:24.823Z,82.99
2023-02-21T04:41:52.813Z,82.45
2023-02-21T04:44:20.820Z,83.50
2023-02-21T04:46:50.148Z,83.04
2023-02-21T04:49:18.949Z,83.18
2023-02-21T04:51:46.983Z,82.90
2023-02-21T04:54:14.955Z,82.05
2023-02-21T04:56:43.035Z,82.55
2023-02-21T04:59:11.017Z,82.51
2023-02-21T05:01:39.081Z,82.91
2023-02-21T05:04:08.494Z,83.26
2023-02-21T05:06:36.519Z,82.59
2023-02-21T05:09:04.871Z,82.23
2023-02-21T05:11:35.783Z,83.20
2023-02-21T05:14:04.470Z,83.78
2023-02-21T05:16:32.554Z,83.76
2023-02-21T05:19:02.944Z,83.70
2023-02-21T05:21:36.340Z,83.44
2023-02-21T05:24:04.722Z,83.15
2023-02-21T05:26:37.026Z,83.33
2023-02-21T05:29:05.783Z,82.64
2023-02-21T05:31:33.790Z,82.87
2023-02-21T05:34:03.886Z,83.01
2023-02-21T05:36:33.386Z,82.43
2023-02-21T05:39:01.453Z,83.48
2023-02-21T05:41:29.548Z,83.97
2023-02-21T05:43:57.964Z,82.94
2023-02-21T05:46:28.450Z,83.87
2023-02-21T05:48:57.474Z,83.97
2023-02-21T05:51:26.305Z,84.48
2023-02-21T05:53:55.948Z,84.70
2023-02-21T05:56:24.335Z,84.43
2023-02-21T05:58:52.441Z,84.94
2023-02-21T06:01:21.791Z,84.61
2023-02-21T06:03:50.028Z,84.48
2023-02-21T06:06:18.465Z,84.82
2023-02-21T06:08:49.357Z,84.66
2023-02-21T06:11:24.717Z,85.02
2023-02-21T06:13:53.842Z,84.37
2023-02-21T06:16:23.181Z,84.05
2023-02-21T06:18:52.353Z,84.32
2023-02-21T06:21:20.584Z,83.67
2023-02-21T06:23:49.241Z,84.18
2023-02-21T06:26:19.723Z,84.19
2023-02-21T06:28:48.226Z,84.40
2023-02-21T06:31:17.560Z,84.79
2023-02-21T06:33:45.832Z,84.61
2023-02-21T06:36:16.781Z,84.30
2023-02-21T06:38:46.140Z,84.53
2023-02-21T06:41:16.982Z,83.93
2023-02-21T06:43:46.459Z,84.63
2023-02-21T06:46:17.629Z,84.16
2023-02-21T06:48:46.240Z,84.72
2023-02-21T06:51:15.232Z,85.28
2023-02-21T06:53:44.286Z,85.10
2023-02-21T06:56:13.466Z,85.88
2023-02-21T06:58:41.538Z,85.84
2023-02-21T07:01:11.143Z,85.57
2023-02-21T07:03:43.318Z,85.35
2023-02-21T07:06:11.567Z,85.19
2023-02-21T07:08:39.729Z,85.50
2023-02-21T07:11:08.262Z,84.98
2023-02-21T07:13:37.899Z,84.53
2023-02-21T07:16:06.964Z,83.58
2023-02-21T07:18:36.513Z,83.85
2023-02-21T07:21:04.637Z,84.63
2023-02-21T07:23:32.614Z,84.58
2023-02-21T07:26:00.974Z,85.26
2023-02-21T07:28:29.336Z,85.10
2023-02-21T07:30:57.475Z,85.04
2023-02-21T07:33:27.167Z,84.66
2023-02-21T07:35:56.948Z,85.11
2023-02-21T07:38:26.945Z,84.39
2023-02-21T07:40:56.925Z,84.48
2023-02-21T07:43:26.136Z,84.04
2023-02-21T07:45:54.242Z,84.22
2023-02-21T07:48:22.781Z,84.36
2023-02-21T07:50:51.141Z,83.94
2023-02-21T07:53:20.924Z,84.38
2023-02-21T07:55:49.119Z,84.02
2023-02-21T07:58:17.141Z,83.41
2023-02-21T08:00:45.219Z,83.13
2023-02-21T08:03:15.720Z,83.33
2023-02-21T08:05:43.819Z,83.01
2023-02-21T08:08:12.297Z,83.04
2023-02-21T08:10:41.753Z,82.43
2023-02-21T08:13:09.767Z,81.95
2023-02-21T08:15:41.276Z,81.59
2023-02-21T08:18:19.327Z,81.74
2023-02-21T08:20:47.486Z,80.90
2023-02-21T08:23:15.611Z,81.86
2023-02-21T08:25:45.318Z,81.02
2023-02-21T08:28:13.604Z,81.04
2023-02-21T08:30:41.806Z,81.10
2023-02-21T08:33:10.083Z,80.50
2023-02-21T08:35:39.473Z,80.08
2023-02-21T08:38:08.626Z,79.93
2023-02-21T08:40:36.695Z,79.97
2023-02-21T08:43:06.348Z,79.89
2023-02-21T08:45:34.491Z,79.87
2023-02-21T08:48:02.598Z,79.06
2023-02-21T08:50:30.766Z,78.67
2023-02-21T08:52:58.840Z,78.51
2023-02-21T08:55:26.937Z,78.31
2023-02-21T08:57:56.163Z,78.21
2023-02-21T09:00:28.585Z,78.33
2023-02-21T09:02:56.922Z,77.19
2023-02-21T09:05:28.156Z,76.64
2023-02-21T09:07:59.246Z,76.26
2023-02-21T09:10:27.935Z,75.57
2023-02-21T09:12:56.130Z,75.57
2023-02-21T09:15:25.591Z,74.83
2023-02-21T09:17:54.587Z,74.53
2023-02-21T09:20:25.404Z,74.59
2023-02-21T09:22:54.417Z,74.17
2023-02-21T09:25:24.809Z,73.64
2023-02-21T09:27:54.439Z,73.23
2023-02-21T09:30:27.165Z,72.71
2023-02-21T09:32:55.837Z,70.67
2023-02-21T09:35:24.666Z,69.77
2023-02-21T09:37:52.848Z,67.11
2023-02-21T09:40:30.564Z,66.36
2023-02-21T09:43:01.034Z,65.09
2023-02-21T09:45:34.550Z,64.12
2023-02-21T09:48:07.374Z,62.50
2023-02-21T09:50:42.767Z,61.30
2023-02-21T09:53:16.696Z,59.81
2023-02-21T09:55:45.035Z,59.55
2023-02-21T09:58:14.967Z,59.24
2023-02-21T10:00:46.777Z,56.94
2023-02-21T10:03:31.641Z,56.34
2023-02-21T10:06:09.296Z,56.44
2023-02-21T10:08:44.934Z,55.63
2023-02-21T10:11:27.898Z,56.31
2023-02-21T10:14:03.696Z,55.17
2023-02-21T10:16:41.626Z,55.87
2023-02-21T10:19:18.030Z,56.16
2023-02-21T10:21:48.648Z,55.57
2023-02-21T10:24:20.530Z,54.81
2023-02-21T10:26:54.180Z,52.76
2023-02-21T10:29:24.962Z,52.44
2023-02-21T10:31:58.247Z,51.43
2023-02-21T10:34:29.094Z,51.48
2023-02-21T10:37:05.251Z,52.29
2023-02-21T10:39:38.019Z,51.61
2023-02-21T10:42:06.054Z,50.84
2023-02-21T10:44:37.020Z,50.36
2023-02-21T10:47:15.296Z,50.98
2023-02-21T10:49:51.322Z,48.77
2023-02-21T10:52:21.808Z,49.15
2023-02-21T10:55:02.598Z,50.52
2023-02-21T10:57:33.083Z,49.63
2023-02-21T11:00:10.231Z,49.74
2023-02-21T11:02:42.156Z,49.75
2023-02-21T11:05:16.996Z,48.77
2023-02-21T11:07:58.566Z,48.15
2023-02-21T11:10:31.072Z,47.89
2023-02-21T11:13:22.370Z,47.45
2023-02-21T11:16:08.262Z,48.61
2023-02-21T11:18:37.896Z,48.11
2023-02-21T11:21:14.433Z,47.06
2023-02-21T11:23:47.484Z,47.43
2023-02-21T11:26:16.930Z,46.48
2023-02-21T11:28:48.384Z,47.21
2023-02-21T11:31:19.387Z,47.14
2023-02-21T11:33:57.252Z,47.38
2023-02-21T11:36:30.055Z,47.86
2023-02-21T11:39:05.120Z,47.40
2023-02-21T11:41:38.885Z,47.50
2023-02-21T11:44:25.732Z,47.15
2023-02-21T11:47:00.001Z,46.01
2023-02-21T11:49:37.715Z,47.22
2023-02-21T11:52:10.541Z,46.62
2023-02-21T11:54:41.221Z,46.84
2023-02-21T11:57:17.648Z,46.73
2023-02-21T11:59:56.886Z,46.81
2023-02-21T12:03:01.125Z,45.15
2023-02-21T12:05:58.714Z,45.77
2023-02-21T12:08:52.185Z,45.33
2023-02-21T12:11:31.616Z,45.43
2023-02-21T12:14:22.508Z,45.71
2023-02-21T12:16:59.468Z,45.70
2023-02-21T12:19:41.301Z,45.74
2023-02-21T12:22:21.309Z,46.19
2023-02-21T12:25:04.522Z,43.26
2023-02-21T12:27:40.487Z,42.88
2023-02-21T12:30:27.405Z,43.45
2023-02-21T12:33:04.841Z,44.29
2023-02-21T12:35:49.270Z,43.39
2023-02-21T12:38:30.509Z,44.61
2023-02-21T12:41:07.695Z,44.14
2023-02-21T12:43:55.754Z,44.54
2023-02-21T12:46:33.894Z,44.12
2023-02-21T12:49:07.902Z,43.74
2023-02-21T12:51:40.662Z,44.45
2023-02-21T12:54:15.794Z,44.67
2023-02-21T12:56:49.642Z,45.36
2023-02-21T12:59:22.943Z,43.43
2023-02-21T13:01:54.722Z,43.30
2023-02-21T13:04:34.472Z,44.38
2023-02-21T13:07:11.379Z,44.22
2023-02-21T13:09:50.063Z,44.01
2023-02-21T13:12:22.891Z,43.81
2023-02-21T13:14:56.588Z,43.08
2023-02-21T13:17:25.169Z,43.10
2023-02-21T13:20:00.626Z,43.60
2023-02-21T13:23:06.068Z,44.12
2023-02-21T13:25:52.933Z,44.69
2023-02-21T13:28:24.159Z,44.26
2023-02-21T13:30:54.335Z,43.21
2023-02-21T13:33:29.185Z,44.69
2023-02-21T13:36:01.937Z,44.18
2023-02-21T13:38:32.583Z,43.33
2023-02-21T13:41:11.158Z,43.61
2023-02-21T13:43:50.904Z,43.66
2023-02-21T13:46:47.715Z,43.73
2023-02-21T13:49:51.150Z,43.73
2023-02-21T13:52:45.216Z,44.70
2023-02-21T13:55:36.251Z,44.27
2023-02-21T13:58:45.003Z,43.67
2023-02-21T14:01:44.100Z,43.53
2023-02-21T14:05:01.693Z,44.27
2023-02-21T14:07:46.057Z,44.05
2023-02-21T14:10:42.682Z,44.37
2023-02-21T14:13:22.887Z,44.68
2023-02-21T14:15:57.769Z,44.77
2023-02-21T14:18:31.079Z,44.83
2023-02-21T14:20:59.907Z,44.79
2023-02-21T14:23:42.843Z,44.66
2023-02-21T14:26:39.596Z,44.46
2023-02-21T14:29:30.530Z,44.43
2023-02-21T14:32:17.295Z,44.64
2023-02-21T14:34:56.690Z,45.10
2023-02-21T14:37:29.243Z,45.27
2023-02-21T14:40:01.131Z,45.36
2023-02-21T14:42:45.252Z,45.18
2023-02-21T14:45:26.636Z,45.09
2023-02-21T14:48:23.386Z,45.23
2023-02-21T14:51:31.791Z,45.49
2023-02-21T14:54:19.665Z,45.90
2023-02-21T14:57:06.754Z,45.62
2023-02-21T14:59:51.666Z,45.22
2023-02-21T15:02:29.107Z,45.35
2023-02-21T15:05:15.259Z,45.72
2023-02-21T15:07:54.857Z,45.78
2023-02-21T15:10:27.967Z,45.69
2023-02-21T15:12:59.722Z,45.15
2023-02-21T15:15:30.650Z,45.42
2023-02-21T15:18:03.579Z,45.74
2023-02-21T15:20:33.996Z,45.68
2023-02-21T15:23:12.216Z,45.55
2023-02-21T15:25:40.284Z,45.45
2023-02-21T15:28:20.319Z,45.94
2023-02-21T15:30:59.336Z,45.33
2023-02-21T15:33:29.227Z,45.38
2023-02-21T15:36:01.023Z,45.83
2023-02-21T15:38:34.568Z,45.57
2023-02-21T15:41:07.550Z,45.75
2023-02-21T15:43:43.898Z,45.74
2023-02-21T15:46:17.717Z,45.79
2023-02-21T15:48:46.500Z,45.61
2023-02-21T15:51:27.676Z,45.95
2023-02-21T15:54:26.277Z,46.23
2023-02-21T15:57:09.196Z,46.76
2023-02-21T15:59:38.511Z,47.10
2023-02-21T16:02:18.781Z,46.52
2023-02-21T16:04:48.333Z,47.03
2023-02-21T16:07:22.076Z,47.18
2023-02-21T16:09:59.249Z,47.10
2023-02-21T16:12:32.425Z,47.48
2023-02-21T16:15:02.868Z,47.90
2023-02-21T16:17:33.986Z,48.22
2023-02-21T16:20:14.248Z,48.73
2023-02-21T16:23:06.820Z,48.42
2023-02-21T16:25:33.940Z,49.44
2023-02-21T16:28:03.102Z,49.33
2023-02-21T16:30:35.569Z,49.75
2023-02-21T16:33:05.909Z,50.23
2023-02-21T16:35:34.898Z,50.23
2023-02-21T16:38:03.130Z,50.66
2023-02-21T16:40:34.592Z,51.11
2023-02-21T16:43:04.086Z,50.89
2023-02-21T16:45:33.528Z,51.80
2023-02-21T16:48:04.735Z,51.86
2023-02-21T16:50:34.563Z,52.00
2023-02-21T16:53:03.852Z,52.23
2023-02-21T16:55:33.644Z,52.03
2023-02-21T16:58:04.004Z,52.50
2023-02-21T17:00:33.527Z,52.70
2023-02-21T17:03:02.171Z,53.28
2023-02-21T17:05:30.648Z,53.82
2023-02-21T17:07:58.724Z,54.81
2023-02-21T17:10:26.741Z,55.24
2023-02-21T17:12:58.161Z,57.03
2023-02-21T17:15:27.571Z,57.16
2023-02-21T17:17:55.652Z,57.96
2023-02-21T17:20:24.160Z,57.92
2023-02-21T17:22:52.623Z,59.05
2023-02-21T17:25:22.230Z,59.86
2023-02-21T17:27:50.768Z,59.58
2023-02-21T17:30:23.042Z,60.76
2023-02-21T17:32:51.700Z,61.98
2023-02-21T17:35:22.602Z,62.61
2023-02-21T17:37:51.577Z,63.18
2023-02-21T17:40:21.391Z,63.65
2023-02-21T17:42:49.446Z,63.73
2023-02-21T17:45:20.797Z,63.81
2023-02-21T17:47:49.468Z,63.24
2023-02-21T17:50:17.819Z,63.70
2023-02-21T17:52:46.391Z,63.59
2023-02-21T17:55:19.522Z,65.74
2023-02-21T17:57:47.482Z,66.08
2023-02-21T18:00:24.428Z,66.08
2023-02-21T18:02:52.961Z,66.59
2023-02-21T18:05:21.867Z,67.42
2023-02-21T18:07:51.316Z,68.09
2023-02-21T18:10:20.643Z,67.68
2023-02-21T18:12:51.345Z,67.93
2023-02-21T18:15:22.477Z,68.02
2023-02-21T18:17:50.524Z,68.83
2023-02-21T18:20:19.130Z,69.10
2023-02-21T18:22:47.559Z,68.79
2023-02-21T18:25:17.786Z,68.64
2023-02-21T18:27:46.607Z,70.03
2023-02-21T18:30:16.284Z,70.11
2023-02-21T18:32:46.966Z,70.45
2023-02-21T18:35:16.257Z,69.89
2023-02-21T18:37:46.037Z,70.17
2023-02-21T18:40:14.789Z,69.78
2023-02-21T18:42:43.521Z,70.30
2023-02-21T18:45:13.447Z,70.48
2023-02-21T18:47:42.277Z,70.42
2023-02-21T18:50:12.028Z,70.73
2023-02-21T18:52:40.014Z,71.49
2023-02-21T18:55:08.788Z,71.79
2023-02-21T18:57:37.484Z,72.37
2023-02-21T19:00:07.725Z,71.85
2023-02-21T19:02:35.786Z,71.53
2023-02-21T19:05:03.844Z,72.06
2023-02-21T19:07:36.432Z,72.56
2023-02-21T19:10:04.908Z,72.54
2023-02-21T19:12:33.150Z,72.40
2023-02-21T19:15:01.109Z,72.95
2023-02-21T19:17:29.090Z,72.57
2023-02-21T19:19:57.090Z,73.14
2023-02-21T19:22:25.043Z,73.05
2023-02-21T19:24:54.419Z,72.99
2023-02-21T19:27:22.441Z,73.61
2023-02-21T19:29:50.509Z,73.22
2023-02-21T19:32:20.315Z,72.77
2023-02-21T19:34:50.146Z,72.69
2023-02-21T19:37:19.261Z,72.54
2023-02-21T19:39:47.616Z,73.22
2023-02-21T19:42:17.025Z,73.29
2023-02-21T19:44:44.992Z,73.50
2023-02-21T19:47:14.458Z,73.94
2023-02-21T19:49:46.071Z,73.73
2023-02-21T19:52:14.213Z,74.04
2023-02-21T19:54:48.019Z,73.71
2023-02-21T19:57:17.557Z,74.38
2023-02-21T19:59:45.631Z,74.12
2023-02-21T20:02:16.575Z,74.68
2023-02-21T20:04:44.867Z,74.77
2023-02-21T20:07:15.070Z,74.66
2023-02-21T20:09:46.472Z,74.72
2023-02-21T20:12:24.810Z,75.20
2023-02-21T20:14:57.364Z,75.23
2023-02-21T20:17:27.332Z,75.14
2023-02-21T20:19:56.328Z,74.68
2023-02-21T20:22:32.023Z,75.51
2023-02-21T20:25:00.187Z,74.58
2023-02-21T20:27:32.583Z,75.33
2023-02-21T20:30:00.623Z,75.35
2023-02-21T20:32:30.602Z,74.97
2023-02-21T20:35:01.333Z,75.03
2023-02-21T20:37:31.489Z,75.77
2023-02-21T20:40:05.860Z,75.17
2023-02-21T20:42:37.408Z,75.78
2023-02-21T20:45:10.602Z,75.27
2023-02-21T20:47:39.194Z,75.61
2023-02-21T20:50:08.680Z,76.02
2023-02-21T20:52:36.937Z,75.93
2023-02-21T20:55:05.560Z,75.74
2023-02-21T20:57:35.348Z,75.77
2023-02-21T21:00:09.243Z,76.15
2023-02-21T21:02:37.770Z,75.39
2023-02-21T21:05:13.566Z,75.68
2023-02-21T21:07:42.741Z,75.29
2023-02-21T21:10:14.804Z,75.44
2023-02-21T21:12:45.574Z,76.43
2023-02-21T21:15:15.578Z,75.74
2023-02-21T21:17:44.556Z,75.95
2023-02-21T21:20:17.654Z,77.14
2023-02-21T21:22:47.191Z,75.76
2023-02-21T21:25:18.136Z,76.23
2023-02-21T21:27:48.910Z,75.90
2023-02-21T21:30:22.772Z,76.56
2023-02-21T21:32:51.385Z,76.27
2023-02-21T21:35:20.872Z,76.98
2023-02-21T21:37:49.890Z,77.44
2023-02-21T21:40:19.066Z,76.96
2023-02-21T21:42:50.366Z,77.41
2023-02-21T21:45:20.132Z,77.75
2023-02-21T21:47:49.704Z,77.32
2023-02-21T21:50:18.881Z,78.20
2023-02-21T21:52:51.511Z,77.21
2023-02-21T21:55:21.867Z,77.31
2023-02-21T21:57:53.443Z,78.38
2023-02-21T22:00:23.275Z,77.29
2023-02-21T22:02:57.002Z,78.01
2023-02-21T22:05:25.984Z,78.52
2023-02-21T22:07:54.298Z,77.83
2023-02-21T22:10:24.044Z,77.86
2023-02-21T22:12:56.745Z,78.03
2023-02-21T22:15:27.605Z,78.72
2023-02-21T22:17:56.123Z,78.34
2023-02-21T22:20:28.586Z,78.77
2023-02-21T22:23:01.508Z,78.96
2023-02-21T22:25:32.273Z,79.48
2023-02-21T22:28:05.620Z,78.66
2023-02-21T22:30:33.771Z,78.68
2023-02-21T22:33:01.841Z,78.67
2023-02-21T22:35:29.958Z,78.03
2023-02-21T22:38:02.018Z,79.25
2023-02-21T22:40:35.726Z,79.59
2023-02-21T22:43:09.101Z,78.33
2023-02-21T22:45:38.042Z,79.07
2023-02-21T22:48:10.072Z,78.26
2023-02-21T22:50:39.602Z,78.67
2023-02-21T22:53:10.874Z,79.30
2023-02-21T22:55:39.031Z,79.02
2023-02-21T22:58:10.481Z,79.33
2023-02-21T23:00:39.240Z,79.50
2023-02-21T23:03:13.273Z,78.68
2023-02-21T23:05:43.781Z,78.42
2023-02-21T23:08:12.922Z,79.50
2023-02-21T23:10:41.374Z,79.52
2023-02-21T23:13:14.276Z,78.32
2023-02-21T23:15:42.682Z,78.42
2023-02-21T23:18:11.798Z,78.76
2023-02-21T23:20:39.988Z,78.61
2023-02-21T23:23:09.038Z,79.16
2023-02-21T23:25:37.078Z,79.18
2023-02-21T23:28:07.660Z,79.04
2023-02-21T23:30:42.245Z,79.83
2023-02-21T23:33:14.608Z,80.11
2023-02-21T23:35:43.147Z,79.73
2023-02-21T23:38:15.587Z,79.78
2023-02-21T23:40:44.382Z,80.43
2023-02-21T23:43:12.969Z,80.47
2023-02-21T23:45:42.775Z,81.09
2023-02-21T23:48:15.714Z,82.08
2023-02-21T23:50:46.521Z,81.51
2023-02-21T23:53:16.069Z,81.37
2023-02-21T23:55:46.524Z,79.72
2023-02-21T23:58:17.665Z,80.65
